createdAt,value
2023-02-14T00:03:34.551Z,-0.60
2023-02-14T00:06:21.631Z,-0.65
2023-02-14T00:09:12.241Z,-0.96
2023-02-14T00:11:59.420Z,-1.06
2023-02-14T00:15:05.178Z,-1.12
2023-02-14T00:17:54.787Z,-1.02
2023-02-14T00:20:41.945Z,-1.47
2023-02-14T00:23:29.176Z,-1.50
2023-02-14T00:26:16.232Z,-1.29
2023-02-14T00:29:03.328Z,-1.34
2023-02-14T00:31:50.935Z,-1.39
2023-02-14T00:34:38.191Z,-1.53
2023-02-14T00:37:25.514Z,-1.90
2023-02-14T00:40:13.125Z,-1.51
2023-02-14T00:43:00.181Z,-1.59
2023-02-14T00:45:47.264Z,-1.74
2023-02-14T00:48:34.360Z,-1.79
2023-02-14T00:51:21.871Z,-1.84
2023-02-14T00:54:08.975Z,-1.87
2023-02-14T00:56:56.014Z,-1.77
2023-02-14T00:59:43.080Z,-1.72
2023-02-14T01:02:30.247Z,-1.73
2023-02-14T01:05:17.504Z,-1.26
2023-02-14T01:08:05.255Z,-1.24
2023-02-14T01:10:52.567Z,-1.22
2023-02-14T01:13:40.828Z,-1.32
2023-02-14T01:16:29.588Z,-0.95
2023-02-14T01:19:16.806Z,-1.14
2023-02-14T01:22:03.894Z,-0.77
2023-02-14T01:24:50.894Z,-0.81
2023-02-14T01:27:38.005Z,-0.91
2023-02-14T01:30:25.583Z,-1.05
2023-02-14T01:33:12.790Z,-0.83
2023-02-14T01:36:00.777Z,-0.39
2023-02-14T01:38:50.900Z,-0.57
2023-02-14T01:41:39.900Z,-0.74
2023-02-14T01:44:26.968Z,-0.55
2023-02-14T01:47:14.721Z,-0.54
2023-02-14T01:50:22.644Z,-0.56
2023-02-14T01:53:16.260Z,-0.51
2023-02-14T01:56:08.477Z,-0.54
2023-02-14T01:58:59.342Z,-0.40
2023-02-14T02:01:48.830Z,-0.37
2023-02-14T02:04:39.241Z,-0.37
2023-02-14T02:07:29.395Z,-0.54
2023-02-14T02:10:16.633Z,-0.32
2023-02-14T02:13:07.255Z,-0.46
2023-02-14T02:16:07.995Z,-0.31
2023-02-14T02:19:27.461Z,-0.23
2023-02-14T02:22:23.656Z,-0.11
2023-02-14T02:25:40.434Z,-0.17
2023-02-14T02:29:01.205Z,-0.17
2023-02-14T02:32:17.377Z,-0.35
2023-02-14T02:35:17.973Z,-0.26
2023-02-14T02:38:33.817Z,-0.23
2023-02-14T02:41:48.284Z,-0.29
2023-02-14T02:44:44.212Z,-0.24
2023-02-14T02:47:40.475Z,-0.32
2023-02-14T02:50:55.597Z,-0.19
2023-02-14T02:54:03.827Z,-0.24
2023-02-14T02:56:56.168Z,-0.20
2023-02-14T02:59:45.976Z,-0.29
2023-02-14T03:03:01.270Z,-0.29
2023-02-14T03:05:48.562Z,-0.30
2023-02-14T03:08:35.656Z,-0.18
2023-02-14T03:11:24.817Z,-0.36
2023-02-14T03:14:21.444Z,-0.42
2023-02-14T03:17:25.021Z,-0.45
2023-02-14T03:20:23.102Z,-0.36
2023-02-14T03:23:25.149Z,-0.44
2023-02-14T03:26:27.494Z,-0.38
2023-02-14T03:29:20.720Z,-0.21
2023-02-14T03:32:07.881Z,-0.33
2023-02-14T03:35:03.576Z,-0.46
2023-02-14T03:38:13.605Z,-0.22
2023-02-14T03:41:09.504Z,-0.41
2023-02-14T03:44:01.133Z,-0.44
2023-02-14T03:46:54.424Z,-0.54
2023-02-14T03:49:46.680Z,-0.68
2023-02-14T03:52:36.243Z,-0.88
2023-02-14T03:55:46.872Z,-0.45
2023-02-14T03:58:43.877Z,-0.59
2023-02-14T04:01:40.213Z,-0.53
2023-02-14T04:04:32.684Z,-0.73
2023-02-14T04:07:22.392Z,-0.48
2023-02-14T04:10:09.970Z,-0.44
2023-02-14T04:12:57.015Z,-0.34
2023-02-14T04:15:44.636Z,-0.54
2023-02-14T04:18:50.239Z,-0.62
2023-02-14T04:21:37.324Z,-0.38
2023-02-14T04:24:24.315Z,-0.60
2023-02-14T04:27:11.735Z,-0.21
2023-02-14T04:29:58.912Z,-0.40
2023-02-14T04:32:46.172Z,-0.62
2023-02-14T04:35:33.213Z,-0.68
2023-02-14T04:38:20.388Z,-0.43
2023-02-14T04:41:07.429Z,-0.47
2023-02-14T04:43:54.529Z,-0.64
2023-02-14T04:46:41.734Z,-0.44
2023-02-14T04:49:28.864Z,-0.54
2023-02-14T04:52:16.001Z,-0.15
2023-02-14T04:55:04.572Z,-0.30
2023-02-14T04:57:52.252Z,-0.14
2023-02-14T05:00:39.366Z,-0.33
2023-02-14T05:03:26.486Z,-0.47
2023-02-14T05:06:13.567Z,-0.53
2023-02-14T05:09:01.430Z,-0.31
2023-02-14T05:11:48.507Z,-0.42
2023-02-14T05:14:35.589Z,-0.30
2023-02-14T05:17:22.677Z,-0.27
2023-02-14T05:20:10.212Z,-0.53
2023-02-14T05:23:00.152Z,-0.34
2023-02-14T05:25:52.040Z,-0.69
2023-02-14T05:28:41.181Z,-0.55
2023-02-14T05:31:28.326Z,-0.60
2023-02-14T05:34:15.590Z,-0.45
2023-02-14T05:37:03.746Z,-0.56
2023-02-14T05:39:50.798Z,-0.92
2023-02-14T05:42:37.833Z,-0.98
2023-02-14T05:45:25.020Z,-0.56
2023-02-14T05:48:12.245Z,-0.69
2023-02-14T05:51:07.124Z,-0.79
2023-02-14T05:53:54.134Z,-0.55
2023-02-14T05:56:41.231Z,-0.70
2023-02-14T05:59:28.307Z,-0.61
2023-02-14T06:02:16.136Z,-0.51
2023-02-14T06:05:03.330Z,-0.95
2023-02-14T06:07:50.993Z,-0.86
2023-02-14T06:10:37.988Z,-0.85
2023-02-14T06:13:25.171Z,-0.58
2023-02-14T06:16:12.265Z,-0.98
2023-02-14T06:18:59.395Z,-0.78
2023-02-14T06:21:47.005Z,-0.72
2023-02-14T06:24:34.109Z,-1.00
2023-02-14T06:27:21.134Z,-0.98
2023-02-14T06:30:09.413Z,-0.81
2023-02-14T06:32:56.585Z,-1.05
2023-02-14T06:35:43.703Z,-0.71
2023-02-14T06:38:30.719Z,-1.08
2023-02-14T06:41:18.270Z,-0.62
2023-02-14T06:44:05.371Z,-0.90
2023-02-14T06:46:52.485Z,-0.77
2023-02-14T06:49:39.899Z,-0.72
2023-02-14T06:52:26.981Z,-0.64
2023-02-14T06:55:14.050Z,-0.78
2023-02-14T06:58:01.174Z,-0.74
2023-02-14T07:00:48.471Z,-0.88
2023-02-14T07:03:35.522Z,-0.69
2023-02-14T07:06:22.710Z,-0.72
2023-02-14T07:09:09.899Z,-0.63
2023-02-14T07:11:56.934Z,-0.59
2023-02-14T07:14:44.074Z,-0.61
2023-02-14T07:17:31.119Z,-0.61
2023-02-14T07:20:19.436Z,-0.76
2023-02-14T07:23:06.572Z,-0.44
2023-02-14T07:25:55.576Z,-0.64
2023-02-14T07:28:44.890Z,-0.46
2023-02-14T07:31:32.486Z,-0.57
2023-02-14T07:34:19.611Z,-0.53
2023-02-14T07:37:06.783Z,-0.31
2023-02-14T07:39:53.898Z,-0.56
2023-02-14T07:42:41.120Z,-0.52
2023-02-14T07:45:28.266Z,-0.33
2023-02-14T07:48:15.364Z,-0.41
2023-02-14T07:51:03.412Z,-0.69
2023-02-14T07:53:50.666Z,-0.38
2023-02-14T07:56:37.788Z,-0.39
2023-02-14T07:59:26.074Z,-0.26
2023-02-14T08:02:13.347Z,-0.20
2023-02-14T08:05:00.581Z,-0.29
2023-02-14T08:07:47.980Z,-0.24
2023-02-14T08:10:35.151Z,-0.56
2023-02-14T08:13:22.629Z,-0.39
2023-02-14T08:16:11.867Z,-0.46
2023-02-14T08:18:59.067Z,-0.53
2023-02-14T08:21:46.252Z,-0.44
2023-02-14T08:24:33.471Z,-0.29
2023-02-14T08:27:20.660Z,-0.47
2023-02-14T08:30:09.924Z,-0.07
2023-02-14T08:33:01.161Z,-0.77
2023-02-14T08:35:48.272Z,-0.90
2023-02-14T08:38:56.299Z,-0.41
2023-02-14T08:41:51.864Z,-0.51
2023-02-14T08:45:13.292Z,-0.54
2023-02-14T08:48:44.734Z,-0.18
2023-02-14T09:18:57.983Z,-0.09
2023-02-14T09:21:58.409Z,0.33
2023-02-14T09:25:00.920Z,0.46
2023-02-14T09:28:07.583Z,0.12
2023-02-14T09:32:02.656Z,-0.11
2023-02-14T09:35:32.731Z,0.00
2023-02-14T09:38:47.380Z,-0.08
2023-02-14T09:42:07.073Z,0.38
2023-02-14T10:07:37.112Z,0.22
2023-02-14T10:10:33.732Z,0.34
2023-02-14T10:14:26.573Z,0.40
2023-02-14T10:17:50.795Z,0.59
2023-02-14T10:21:05.457Z,0.80
2023-02-14T10:24:04.694Z,0.91
2023-02-14T10:26:57.854Z,1.02
2023-02-14T10:29:45.286Z,0.98
2023-02-14T10:32:47.231Z,0.89
2023-02-14T10:35:50.570Z,0.92
2023-02-14T10:38:37.697Z,1.04
2023-02-14T10:41:30.831Z,1.29
2023-02-14T10:44:30.872Z,0.85
2023-02-14T10:47:24.408Z,1.23
2023-02-14T10:50:21.038Z,0.88
2023-02-14T10:53:27.247Z,0.58
2023-02-14T10:56:26.012Z,0.73
2023-02-14T10:59:27.429Z,0.46
2023-02-14T11:02:17.252Z,0.35
2023-02-14T11:05:05.371Z,0.56
2023-02-14T11:07:52.691Z,0.41
2023-02-14T11:10:39.825Z,0.28
2023-02-14T11:13:33.970Z,0.57
2023-02-14T11:16:33.411Z,0.86
2023-02-14T11:19:20.595Z,1.15
2023-02-14T11:22:10.389Z,0.96
2023-02-14T11:25:18.608Z,0.99
2023-02-14T11:28:14.067Z,1.46
2023-02-14T11:31:02.023Z,1.44
2023-02-14T11:33:51.520Z,1.24
2023-02-14T11:36:43.044Z,1.42
2023-02-14T11:39:31.927Z,1.67
2023-02-14T11:42:42.798Z,2.09
2023-02-14T11:45:36.835Z,2.09
2023-02-14T11:48:41.969Z,2.08
2023-02-14T11:51:39.238Z,1.68
2023-02-14T11:54:30.938Z,1.80
2023-02-14T11:57:28.032Z,1.61
2023-02-14T12:00:18.680Z,1.81
2023-02-14T12:03:07.192Z,1.67
2023-02-14T12:06:00.635Z,1.65
2023-02-14T12:08:47.851Z,1.97
2023-02-14T12:11:35.182Z,2.03
2023-02-14T12:14:24.828Z,2.07
2023-02-14T12:17:12.058Z,2.16
2023-02-14T12:20:15.649Z,2.01
2023-02-14T12:23:09.894Z,1.77
2023-02-14T12:26:03.987Z,1.85
2023-02-14T12:29:14.424Z,2.18
2023-02-14T12:32:20.579Z,2.30
2023-02-14T12:35:36.838Z,2.22
2023-02-14T12:39:12.199Z,2.17
2023-02-14T12:42:04.985Z,2.44
2023-02-14T12:45:11.173Z,2.26
2023-02-14T12:48:16.735Z,2.27
2023-02-14T12:51:34.775Z,2.10
2023-02-14T12:54:45.068Z,1.97
2023-02-14T12:57:32.015Z,2.10
2023-02-14T13:00:25.019Z,2.16
2023-02-14T13:03:30.627Z,2.16
2023-02-14T13:06:26.692Z,2.16
2023-02-14T13:09:32.213Z,2.24
2023-02-14T13:12:35.504Z,2.20
2023-02-14T13:15:52.994Z,2.00
2023-02-14T13:19:12.633Z,2.25
2023-02-14T13:22:01.404Z,2.16
2023-02-14T13:24:52.210Z,2.03
2023-02-14T13:30:24.520Z,2.37
2023-02-14T13:33:24.976Z,2.50
2023-02-14T13:36:13.552Z,2.83
2023-02-14T13:39:01.460Z,2.84
2023-02-14T13:41:48.751Z,2.72
2023-02-14T13:44:38.954Z,2.97
2023-02-14T13:47:27.134Z,2.81
2023-02-14T13:50:21.650Z,2.59
2023-02-14T13:53:13.744Z,2.42
2023-02-14T13:56:03.795Z,2.40
2023-02-14T13:58:55.346Z,2.41
2023-02-14T14:01:50.317Z,2.41
2023-02-14T14:04:38.284Z,2.47
2023-02-14T14:07:32.312Z,2.46
2023-02-14T14:10:44.922Z,2.04
2023-02-14T14:13:41.200Z,2.46
2023-02-14T14:16:33.626Z,2.48
2023-02-14T14:19:20.767Z,2.53
2023-02-14T14:22:18.045Z,2.55
2023-02-14T14:25:08.891Z,2.50
2023-02-14T14:27:55.974Z,2.69
2023-02-14T14:30:44.888Z,2.48
2023-02-14T14:33:34.805Z,2.48
2023-02-14T14:36:24.076Z,2.48
2023-02-14T14:39:11.370Z,2.46
2023-02-14T14:42:15.547Z,2.61
2023-02-14T14:45:07.127Z,2.76
2023-02-14T14:47:57.949Z,2.66
2023-02-14T14:50:47.255Z,2.55
2023-02-14T14:53:42.104Z,2.72
2023-02-14T14:56:34.453Z,2.76
2023-02-14T14:59:40.988Z,2.72
2023-02-14T15:02:30.076Z,2.48
2023-02-14T15:05:26.134Z,2.61
2023-02-14T15:08:25.607Z,2.51
2023-02-14T15:11:34.693Z,2.41
2023-02-14T15:14:24.488Z,2.48
2023-02-14T15:17:25.605Z,2.44
2023-02-14T15:20:22.116Z,2.34
2023-02-14T15:23:18.210Z,2.35
2023-02-14T15:26:06.362Z,2.12
2023-02-14T15:29:02.633Z,2.26
2023-02-14T15:31:50.527Z,2.08
2023-02-14T15:34:37.891Z,2.12
2023-02-14T15:37:26.721Z,2.02
2023-02-14T15:40:23.437Z,2.10
2023-02-14T15:43:16.466Z,2.07
2023-02-14T15:46:28.228Z,1.95
2023-02-14T15:49:21.501Z,2.01
2023-02-14T15:52:14.258Z,1.92
2023-02-14T15:55:01.376Z,1.96
2023-02-14T15:57:55.692Z,1.94
2023-02-14T16:00:44.976Z,1.99
2023-02-14T16:03:38.913Z,1.96
2023-02-14T16:06:45.307Z,1.90
2023-02-14T16:09:36.639Z,1.76
2023-02-14T16:12:29.767Z,1.84
2023-02-14T16:15:23.127Z,1.85
2023-02-14T16:18:39.880Z,1.71
2023-02-14T16:21:31.500Z,1.68
2023-02-14T16:24:19.901Z,1.47
2023-02-14T16:27:07.242Z,1.43
2023-02-14T16:29:54.541Z,1.35
2023-02-14T16:32:42.273Z,1.42
2023-02-14T16:35:30.749Z,1.48
2023-02-14T16:38:19.905Z,1.59
2023-02-14T16:41:07.381Z,1.57
2023-02-14T16:43:56.702Z,1.41
2023-02-14T16:46:46.079Z,1.51
2023-02-14T16:49:34.600Z,1.47
2023-02-14T16:52:27.181Z,1.51
2023-02-14T16:55:16.925Z,1.49
2023-02-14T16:58:04.312Z,1.23
2023-02-14T17:00:51.858Z,1.27
2023-02-14T17:03:40.194Z,1.17
2023-02-14T17:06:29.273Z,1.30
2023-02-14T17:09:27.753Z,1.22
2023-02-14T17:12:21.946Z,1.29
2023-02-14T17:15:16.943Z,1.23
2023-02-14T17:18:10.253Z,1.12
2023-02-14T17:20:59.895Z,1.21
2023-02-14T17:23:47.970Z,1.21
2023-02-14T17:26:38.661Z,1.02
2023-02-14T17:29:26.111Z,1.20
2023-02-14T17:32:14.519Z,1.38
2023-02-14T17:35:04.059Z,1.24
2023-02-14T17:37:51.832Z,1.06
2023-02-14T17:40:39.230Z,1.00
2023-02-14T17:43:27.101Z,1.06
2023-02-14T17:46:16.408Z,0.90
2023-02-14T17:49:04.043Z,1.26
2023-02-14T17:51:51.765Z,1.41
2023-02-14T17:54:40.299Z,1.36
2023-02-14T17:57:28.003Z,1.27
2023-02-14T18:00:17.140Z,1.43
2023-02-14T18:03:05.067Z,1.24
2023-02-14T18:05:53.098Z,1.24
2023-02-14T18:08:47.275Z,1.25
2023-02-14T18:11:38.540Z,1.19
2023-02-14T18:14:26.221Z,1.10
2023-02-14T18:17:14.404Z,1.08
2023-02-14T18:20:02.758Z,1.12
2023-02-14T18:22:51.004Z,1.13
2023-02-14T18:25:39.221Z,1.12
2023-02-14T18:28:29.807Z,1.14
2023-02-14T18:31:19.142Z,1.16
2023-02-14T18:34:08.567Z,1.22
2023-02-14T18:36:57.835Z,1.23
2023-02-14T18:39:46.161Z,1.30
2023-02-14T18:42:34.345Z,1.30
2023-02-14T18:45:23.670Z,1.47
2023-02-14T18:48:11.634Z,1.30
2023-02-14T18:51:17.230Z,1.30
2023-02-14T18:54:07.304Z,1.35
2023-02-14T18:56:55.797Z,1.33
2023-02-14T18:59:43.882Z,1.30
2023-02-14T19:02:33.702Z,1.20
2023-02-14T19:05:21.813Z,1.23
2023-02-14T19:08:10.405Z,1.31
2023-02-14T19:11:00.586Z,1.36
2023-02-14T19:13:52.241Z,1.26
2023-02-14T19:16:50.541Z,1.10
2023-02-14T19:19:40.834Z,1.19
2023-02-14T19:22:29.049Z,1.13
2023-02-14T19:25:17.254Z,1.15
2023-02-14T19:28:07.697Z,1.13
2023-02-14T19:30:59.724Z,1.25
2023-02-14T19:33:49.020Z,0.90
2023-02-14T19:36:38.488Z,1.16
2023-02-14T19:39:30.312Z,1.09
2023-02-14T19:42:18.867Z,1.17
2023-02-14T19:45:08.331Z,1.29
2023-02-14T19:48:00.201Z,1.17
2023-02-14T19:50:53.325Z,1.09
2023-02-14T19:53:41.541Z,1.06
2023-02-14T19:56:33.575Z,1.10
2023-02-14T19:59:29.199Z,1.15
2023-02-14T20:02:21.303Z,0.98
2023-02-14T20:05:09.338Z,1.16
2023-02-14T20:08:00.532Z,0.98
2023-02-14T20:10:52.116Z,1.15
2023-02-14T20:13:40.713Z,0.78
2023-02-14T20:16:36.875Z,0.79
2023-02-14T20:19:32.889Z,0.93
2023-02-14T20:22:24.251Z,0.87
2023-02-14T20:25:13.038Z,0.70
2023-02-14T20:28:16.191Z,0.90
2023-02-14T20:31:11.636Z,1.10
2023-02-14T20:34:14.139Z,0.77
2023-02-14T20:37:05.482Z,0.67
2023-02-14T20:39:53.785Z,0.75
2023-02-14T20:42:53.507Z,0.80
2023-02-14T20:45:44.672Z,0.70
2023-02-14T20:48:42.033Z,0.94
2023-02-14T20:51:39.142Z,0.64
2023-02-14T20:54:30.198Z,0.73
2023-02-14T20:57:18.439Z,0.91
2023-02-14T21:00:23.812Z,0.45
2023-02-14T21:03:12.446Z,0.54
2023-02-14T21:06:01.702Z,0.87
2023-02-14T21:08:50.663Z,0.91
2023-02-14T21:11:39.406Z,0.91
2023-02-14T21:14:29.200Z,1.06
2023-02-14T21:17:17.958Z,1.05
2023-02-14T21:20:11.849Z,0.99
2023-02-14T21:23:00.943Z,0.97
2023-02-14T21:25:48.895Z,0.89
2023-02-14T21:28:38.431Z,0.86
2023-02-14T21:31:26.795Z,0.80
2023-02-14T21:34:17.066Z,0.91
2023-02-14T21:37:04.573Z,0.96
2023-02-14T21:39:54.789Z,0.75
2023-02-14T21:42:46.193Z,0.76
2023-02-14T21:45:52.692Z,0.64
2023-02-14T21:48:59.715Z,0.53
2023-02-14T21:51:49.228Z,0.79
2023-02-14T21:54:37.124Z,0.79
2023-02-14T21:57:25.041Z,0.66
2023-02-14T22:00:25.812Z,0.81
2023-02-14T22:03:13.259Z,0.49
2023-02-14T22:06:05.531Z,0.46
2023-02-14T22:08:58.870Z,0.36
2023-02-14T22:11:49.626Z,0.82
2023-02-14T22:14:36.905Z,0.80
2023-02-14T22:17:27.700Z,0.75
2023-02-14T22:20:15.232Z,0.74
2023-02-14T22:23:02.438Z,0.65
2023-02-14T22:25:49.643Z,0.78
2023-02-14T22:28:37.269Z,0.53
2023-02-14T22:31:28.895Z,0.61
2023-02-14T22:34:19.934Z,0.57
2023-02-14T22:37:07.154Z,0.54
2023-02-14T22:39:54.522Z,0.56
2023-02-14T22:42:41.646Z,0.70
2023-02-14T22:45:28.769Z,0.67
2023-02-14T22:48:23.578Z,0.71
2023-02-14T22:51:30.957Z,0.23
2023-02-14T22:54:18.165Z,0.68
2023-02-14T22:57:05.350Z,0.61
2023-02-14T22:59:54.497Z,0.48
2023-02-14T23:02:44.611Z,0.57
2023-02-14T23:05:34.473Z,0.66
2023-02-14T23:08:21.742Z,0.35
2023-02-14T23:11:20.854Z,0.62
2023-02-14T23:14:27.578Z,0.76
2023-02-14T23:17:18.841Z,0.89
2023-02-14T23:20:25.372Z,0.63
2023-02-14T23:23:15.005Z,0.58
2023-02-14T23:26:02.414Z,0.54
2023-02-14T23:28:49.722Z,0.37
2023-02-14T23:31:37.223Z,0.43
2023-02-14T23:34:29.432Z,0.62
2023-02-14T23:37:16.641Z,0.72
2023-02-14T23:40:04.215Z,0.60
2023-02-14T23:42:55.017Z,0.54
2023-02-14T23:45:42.130Z,0.40
2023-02-14T23:48:29.300Z,0.70
2023-02-14T23:51:16.456Z,0.58
2023-02-14T23:54:04.263Z,0.73
2023-02-14T23:56:52.562Z,0.67
2023-02-14T23:59:39.697Z,0.52
